sensor_id;sensor_type;location;lat;lon;timestamp;temperature;humidity
6822;DHT22;3449;48.728;8.968;2023-04-10T00:02:22;5.30;99.90
6822;DHT22;3449;48.728;8.968;2023-04-10T00:04:49;5.20;99.90
6822;DHT22;3449;48.728;8.968;2023-04-10T00:07:17;5.10;99.90
6822;DHT22;3449;48.728;8.968;2023-04-10T00:09:44;5.10;99.90
6822;DHT22;3449;48.728;8.968;2023-04-10T00:12:11;5.10;99.90
6822;DHT22;3449;48.728;8.968;2023-04-10T00:14:39;5.00;99.90
6822;DHT22;3449;48.728;8.968;2023-04-10T00:17:06;5.00;99.90
6822;DHT22;3449;48.728;8.968;2023-04-10T00:19:33;5.00;99.90
6822;DHT22;3449;48.728;8.968;2023-04-10T00:22:00;4.90;99.90
6822;DHT22;3449;48.728;8.968;2023-04-10T00:24:28;4.90;99.90
6822;DHT22;3449;48.728;8.968;2023-04-10T00:26:55;4.80;99.90
6822;DHT22;3449;48.728;8.968;2023-04-10T00:29:22;4.80;99.90
6822;DHT22;3449;48.728;8.968;2023-04-10T00:31:49;4.70;99.90
6822;DHT22;3449;48.728;8.968;2023-04-10T00:34:16;4.70;99.90
6822;DHT22;3449;48.728;8.968;2023-04-10T00:36:44;4.70;99.90
6822;DHT22;3449;48.728;8.968;2023-04-10T00:39:11;4.60;99.90
6822;DHT22;3449;48.728;8.968;2023-04-10T00:41:40;4.60;99.90
6822;DHT22;3449;48.728;8.968;2023-04-10T00:44:06;4.50;99.90
6822;DHT22;3449;48.728;8.968;2023-04-10T00:46:36;4.50;99.90
6822;DHT22;3449;48.728;8.968;2023-04-10T00:49:04;4.40;99.90
6822;DHT22;3449;48.728;8.968;2023-04-10T00:51:31;4.40;99.90
6822;DHT22;3449;48.728;8.968;2023-04-10T00:53:59;4.40;99.90
6822;DHT22;3449;48.728;8.968;2023-04-10T00:56:27;4.30;99.90
6822;DHT22;3449;48.728;8.968;2023-04-10T00:58:56;4.30;99.90
6822;DHT22;3449;48.728;8.968;2023-04-10T01:01:23;4.30;99.90
6822;DHT22;3449;48.728;8.968;2023-04-10T01:03:51;4.20;99.90
6822;DHT22;3449;48.728;8.968;2023-04-10T01:06:27;4.20;99.90
6822;DHT22;3449;48.728;8.968;2023-04-10T01:09:02;4.10;99.90
6822;DHT22;3449;48.728;8.968;2023-04-10T01:11:40;4.00;99.90
6822;DHT22;3449;48.728;8.968;2023-04-10T01:14:32;4.00;99.90
6822;DHT22;3449;48.728;8.968;2023-04-10T01:17:06;4.00;99.90
6822;DHT22;3449;48.728;8.968;2023-04-10T01:22:34;3.90;99.90
6822;DHT22;3449;48.728;8.968;2023-04-10T01:25:18;3.90;99.90
6822;DHT22;3449;48.728;8.968;2023-04-10T01:28:02;3.80;99.90
6822;DHT22;3449;48.728;8.968;2023-04-10T01:30:33;3.80;99.90
6822;DHT22;3449;48.728;8.968;2023-04-10T01:33:01;3.70;99.90
6822;DHT22;3449;48.728;8.968;2023-04-10T01:35:29;3.70;99.90
6822;DHT22;3449;48.728;8.968;2023-04-10T01:37:59;3.70;99.90
6822;DHT22;3449;48.728;8.968;2023-04-10T01:40:28;3.60;99.90
6822;DHT22;3449;48.728;8.968;2023-04-10T01:42:58;3.60;99.90
6822;DHT22;3449;48.728;8.968;2023-04-10T01:45:27;3.60;99.90
6822;DHT22;3449;48.728;8.968;2023-04-10T01:47:55;3.50;99.90
6822;DHT22;3449;48.728;8.968;2023-04-10T01:50:23;3.50;99.90
6822;DHT22;3449;48.728;8.968;2023-04-10T01:52:53;3.40;99.90
6822;DHT22;3449;48.728;8.968;2023-04-10T01:55:20;3.40;99.90
6822;DHT22;3449;48.728;8.968;2023-04-10T01:57:48;3.40;99.90
6822;DHT22;3449;48.728;8.968;2023-04-10T02:00:16;3.40;99.90
6822;DHT22;3449;48.728;8.968;2023-04-10T02:02:43;3.40;99.90
6822;DHT22;3449;48.728;8.968;2023-04-10T02:05:12;3.40;99.90
6822;DHT22;3449;48.728;8.968;2023-04-10T02:07:44;3.40;99.90
6822;DHT22;3449;48.728;8.968;2023-04-10T02:10:16;3.40;99.90
6822;DHT22;3449;48.728;8.968;2023-04-10T02:12:49;3.40;99.90
6822;DHT22;3449;48.728;8.968;2023-04-10T02:15:19;3.40;99.90
6822;DHT22;3449;48.728;8.968;2023-04-10T02:17:47;3.50;99.90
6822;DHT22;3449;48.728;8.968;2023-04-10T02:20:16;3.50;99.90
6822;DHT22;3449;48.728;8.968;2023-04-10T02:22:44;3.50;99.90
6822;DHT22;3449;48.728;8.968;2023-04-10T02:25:11;3.50;99.90
6822;DHT22;3449;48.728;8.968;2023-04-10T02:27:39;3.50;99.90
6822;DHT22;3449;48.728;8.968;2023-04-10T02:30:07;3.50;99.90
6822;DHT22;3449;48.728;8.968;2023-04-10T02:32:34;3.40;99.90
6822;DHT22;3449;48.728;8.968;2023-04-10T02:35:01;3.40;99.90
6822;DHT22;3449;48.728;8.968;2023-04-10T02:37:29;3.30;99.90
6822;DHT22;3449;48.728;8.968;2023-04-10T02:39:57;3.30;99.90
6822;DHT22;3449;48.728;8.968;2023-04-10T02:42:24;3.20;99.90
6822;DHT22;3449;48.728;8.968;2023-04-10T02:44:51;3.20;99.90
6822;DHT22;3449;48.728;8.968;2023-04-10T02:47:18;3.10;99.90
6822;DHT22;3449;48.728;8.968;2023-04-10T02:49:45;3.10;99.90
6822;DHT22;3449;48.728;8.968;2023-04-10T02:52:12;3.00;99.90
6822;DHT22;3449;48.728;8.968;2023-04-10T02:54:41;2.90;99.90
6822;DHT22;3449;48.728;8.968;2023-04-10T02:57:07;2.90;99.90
6822;DHT22;3449;48.728;8.968;2023-04-10T02:59:34;2.90;99.90
6822;DHT22;3449;48.728;8.968;2023-04-10T03:02:01;2.90;99.90
6822;DHT22;3449;48.728;8.968;2023-04-10T03:04:30;2.90;99.90
6822;DHT22;3449;48.728;8.968;2023-04-10T03:06:57;2.90;99.90
6822;DHT22;3449;48.728;8.968;2023-04-10T03:09:24;2.80;99.90
6822;DHT22;3449;48.728;8.968;2023-04-10T03:11:53;2.80;99.90
6822;DHT22;3449;48.728;8.968;2023-04-10T03:14:20;2.80;99.90
6822;DHT22;3449;48.728;8.968;2023-04-10T03:16:47;2.70;99.90
6822;DHT22;3449;48.728;8.968;2023-04-10T03:19:15;2.60;99.90
6822;DHT22;3449;48.728;8.968;2023-04-10T03:21:41;2.50;99.90
6822;DHT22;3449;48.728;8.968;2023-04-10T03:24:08;2.50;99.90
6822;DHT22;3449;48.728;8.968;2023-04-10T03:26:35;2.40;99.90
6822;DHT22;3449;48.728;8.968;2023-04-10T03:29:04;2.30;99.90
6822;DHT22;3449;48.728;8.968;2023-04-10T03:31:31;2.30;99.90
6822;DHT22;3449;48.728;8.968;2023-04-10T03:33:57;2.20;99.90
6822;DHT22;3449;48.728;8.968;2023-04-10T03:36:24;2.20;99.90
6822;DHT22;3449;48.728;8.968;2023-04-10T03:38:52;2.20;99.90
6822;DHT22;3449;48.728;8.968;2023-04-10T03:41:19;2.20;99.90
6822;DHT22;3449;48.728;8.968;2023-04-10T03:43:46;2.10;99.90
6822;DHT22;3449;48.728;8.968;2023-04-10T03:46:14;2.10;99.90
6822;DHT22;3449;48.728;8.968;2023-04-10T03:48:41;2.10;99.90
6822;DHT22;3449;48.728;8.968;2023-04-10T03:51:08;2.00;99.90
6822;DHT22;3449;48.728;8.968;2023-04-10T03:53:35;2.10;99.90
6822;DHT22;3449;48.728;8.968;2023-04-10T03:56:02;2.10;99.90
6822;DHT22;3449;48.728;8.968;2023-04-10T03:58:29;2.10;99.90
6822;DHT22;3449;48.728;8.968;2023-04-10T04:00:55;2.10;99.90
6822;DHT22;3449;48.728;8.968;2023-04-10T04:03:24;2.10;99.90
6822;DHT22;3449;48.728;8.968;2023-04-10T04:05:51;2.00;99.90
6822;DHT22;3449;48.728;8.968;2023-04-10T04:08:18;2.00;99.90
6822;DHT22;3449;48.728;8.968;2023-04-10T04:10:44;2.00;99.90
6822;DHT22;3449;48.728;8.968;2023-04-10T04:13:11;2.00;99.90
6822;DHT22;3449;48.728;8.968;2023-04-10T04:15:38;1.90;99.90
6822;DHT22;3449;48.728;8.968;2023-04-10T04:18:05;2.00;99.90
6822;DHT22;3449;48.728;8.968;2023-04-10T04:20:33;1.90;99.90
6822;DHT22;3449;48.728;8.968;2023-04-10T04:23:00;1.90;99.90
6822;DHT22;3449;48.728;8.968;2023-04-10T04:25:27;1.90;99.90
6822;DHT22;3449;48.728;8.968;2023-04-10T04:27:54;1.80;99.90
6822;DHT22;3449;48.728;8.968;2023-04-10T04:30:22;1.80;99.90
6822;DHT22;3449;48.728;8.968;2023-04-10T04:32:48;1.80;99.90
6822;DHT22;3449;48.728;8.968;2023-04-10T04:35:16;1.70;99.90
6822;DHT22;3449;48.728;8.968;2023-04-10T04:37:44;1.70;99.90
6822;DHT22;3449;48.728;8.968;2023-04-10T04:40:11;1.70;99.90
6822;DHT22;3449;48.728;8.968;2023-04-10T04:42:38;1.80;99.90
6822;DHT22;3449;48.728;8.968;2023-04-10T04:45:06;1.80;99.90
6822;DHT22;3449;48.728;8.968;2023-04-10T04:47:33;1.80;99.90
6822;DHT22;3449;48.728;8.968;2023-04-10T04:50:00;1.80;99.90
6822;DHT22;3449;48.728;8.968;2023-04-10T04:52:27;1.90;99.90
6822;DHT22;3449;48.728;8.968;2023-04-10T04:54:55;1.90;99.90
6822;DHT22;3449;48.728;8.968;2023-04-10T04:57:22;2.00;99.90
6822;DHT22;3449;48.728;8.968;2023-04-10T04:59:49;2.00;99.90
6822;DHT22;3449;48.728;8.968;2023-04-10T05:02:16;2.10;99.90
6822;DHT22;3449;48.728;8.968;2023-04-10T05:04:43;2.20;99.90
6822;DHT22;3449;48.728;8.968;2023-04-10T05:07:10;2.20;99.90
6822;DHT22;3449;48.728;8.968;2023-04-10T05:09:37;2.30;99.90
6822;DHT22;3449;48.728;8.968;2023-04-10T05:12:05;2.30;99.90
6822;DHT22;3449;48.728;8.968;2023-04-10T05:14:32;2.40;99.90
6822;DHT22;3449;48.728;8.968;2023-04-10T05:16:59;2.50;99.90
6822;DHT22;3449;48.728;8.968;2023-04-10T05:19:26;2.60;99.90
6822;DHT22;3449;48.728;8.968;2023-04-10T05:21:53;2.60;99.90
6822;DHT22;3449;48.728;8.968;2023-04-10T05:24:20;2.60;99.90
6822;DHT22;3449;48.728;8.968;2023-04-10T05:26:47;2.70;99.90
6822;DHT22;3449;48.728;8.968;2023-04-10T05:29:15;2.70;99.90
6822;DHT22;3449;48.728;8.968;2023-04-10T05:31:42;2.80;99.90
6822;DHT22;3449;48.728;8.968;2023-04-10T05:34:08;2.90;99.90
6822;DHT22;3449;48.728;8.968;2023-04-10T05:36:36;2.90;99.90
6822;DHT22;3449;48.728;8.968;2023-04-10T05:39:03;3.00;99.90
6822;DHT22;3449;48.728;8.968;2023-04-10T05:41:30;3.00;99.90
6822;DHT22;3449;48.728;8.968;2023-04-10T05:43:56;3.10;99.90
6822;DHT22;3449;48.728;8.968;2023-04-10T05:46:25;3.10;99.90
6822;DHT22;3449;48.728;8.968;2023-04-10T05:48:52;3.10;99.90
6822;DHT22;3449;48.728;8.968;2023-04-10T05:51:19;3.20;99.90
6822;DHT22;3449;48.728;8.968;2023-04-10T05:53:47;3.30;99.90
6822;DHT22;3449;48.728;8.968;2023-04-10T05:56:14;3.40;99.90
6822;DHT22;3449;48.728;8.968;2023-04-10T05:58:41;3.50;99.90
6822;DHT22;3449;48.728;8.968;2023-04-10T06:01:08;3.50;99.90
6822;DHT22;3449;48.728;8.968;2023-04-10T06:03:37;3.60;99.90
6822;DHT22;3449;48.728;8.968;2023-04-10T06:06:05;3.70;99.90
6822;DHT22;3449;48.728;8.968;2023-04-10T06:08:32;3.80;99.90
6822;DHT22;3449;48.728;8.968;2023-04-10T06:11:00;3.80;99.90
6822;DHT22;3449;48.728;8.968;2023-04-10T06:13:27;3.90;99.90
6822;DHT22;3449;48.728;8.968;2023-04-10T06:15:54;4.00;99.90
6822;DHT22;3449;48.728;8.968;2023-04-10T06:18:20;4.10;99.90
6822;DHT22;3449;48.728;8.968;2023-04-10T06:20:49;4.20;99.90
6822;DHT22;3449;48.728;8.968;2023-04-10T06:23:15;4.20;99.90
6822;DHT22;3449;48.728;8.968;2023-04-10T06:25:42;4.30;99.90
6822;DHT22;3449;48.728;8.968;2023-04-10T06:28:09;4.30;99.90
6822;DHT22;3449;48.728;8.968;2023-04-10T06:30:36;4.40;99.90
6822;DHT22;3449;48.728;8.968;2023-04-10T06:33:03;4.50;99.90
6822;DHT22;3449;48.728;8.968;2023-04-10T06:35:30;4.60;99.90
6822;DHT22;3449;48.728;8.968;2023-04-10T06:37:58;4.70;99.90
6822;DHT22;3449;48.728;8.968;2023-04-10T06:40:25;4.90;99.90
6822;DHT22;3449;48.728;8.968;2023-04-10T06:42:53;5.10;99.90
6822;DHT22;3449;48.728;8.968;2023-04-10T06:45:20;5.30;99.90
6822;DHT22;3449;48.728;8.968;2023-04-10T06:47:47;5.50;99.90
6822;DHT22;3449;48.728;8.968;2023-04-10T06:50:14;5.70;99.90
6822;DHT22;3449;48.728;8.968;2023-04-10T06:52:41;5.80;99.90
6822;DHT22;3449;48.728;8.968;2023-04-10T06:55:09;5.90;99.90
6822;DHT22;3449;48.728;8.968;2023-04-10T06:57:37;6.10;99.90
6822;DHT22;3449;48.728;8.968;2023-04-10T07:00:05;6.30;99.90
6822;DHT22;3449;48.728;8.968;2023-04-10T07:02:32;6.50;99.90
6822;DHT22;3449;48.728;8.968;2023-04-10T07:04:59;6.60;99.90
6822;DHT22;3449;48.728;8.968;2023-04-10T07:07:26;6.80;99.90
6822;DHT22;3449;48.728;8.968;2023-04-10T07:09:53;7.00;99.90
6822;DHT22;3449;48.728;8.968;2023-04-10T07:12:23;7.20;99.90
6822;DHT22;3449;48.728;8.968;2023-04-10T07:14:51;7.40;99.90
6822;DHT22;3449;48.728;8.968;2023-04-10T07:17:17;7.40;99.90
6822;DHT22;3449;48.728;8.968;2023-04-10T07:19:44;7.60;99.90
6822;DHT22;3449;48.728;8.968;2023-04-10T07:22:11;7.90;99.90
6822;DHT22;3449;48.728;8.968;2023-04-10T07:24:39;8.10;99.90
6822;DHT22;3449;48.728;8.968;2023-04-10T07:27:06;8.40;99.90
6822;DHT22;3449;48.728;8.968;2023-04-10T07:29:34;8.40;99.90
6822;DHT22;3449;48.728;8.968;2023-04-10T07:32:01;8.70;99.90
6822;DHT22;3449;48.728;8.968;2023-04-10T07:34:29;8.90;99.90
6822;DHT22;3449;48.728;8.968;2023-04-10T07:36:56;9.10;99.90
6822;DHT22;3449;48.728;8.968;2023-04-10T07:39:23;9.20;99.90
6822;DHT22;3449;48.728;8.968;2023-04-10T07:41:52;9.40;99.90
6822;DHT22;3449;48.728;8.968;2023-04-10T07:44:19;9.50;99.90
6822;DHT22;3449;48.728;8.968;2023-04-10T07:46:47;9.80;99.90
6822;DHT22;3449;48.728;8.968;2023-04-10T07:49:16;9.90;99.90
6822;DHT22;3449;48.728;8.968;2023-04-10T07:51:43;10.10;99.90
6822;DHT22;3449;48.728;8.968;2023-04-10T07:54:10;10.30;99.90
6822;DHT22;3449;48.728;8.968;2023-04-10T07:56:37;10.50;99.90
6822;DHT22;3449;48.728;8.968;2023-04-10T07:59:04;10.70;99.90
6822;DHT22;3449;48.728;8.968;2023-04-10T08:01:31;11.00;99.90
6822;DHT22;3449;48.728;8.968;2023-04-10T08:04:00;11.20;99.90
6822;DHT22;3449;48.728;8.968;2023-04-10T08:06:27;11.40;99.90
6822;DHT22;3449;48.728;8.968;2023-04-10T08:08:54;11.40;99.90
6822;DHT22;3449;48.728;8.968;2023-04-10T08:11:22;11.60;99.90
6822;DHT22;3449;48.728;8.968;2023-04-10T08:13:49;11.60;99.90
6822;DHT22;3449;48.728;8.968;2023-04-10T08:16:19;11.50;99.90
6822;DHT22;3449;48.728;8.968;2023-04-10T08:18:46;11.60;99.90
6822;DHT22;3449;48.728;8.968;2023-04-10T08:21:14;11.70;99.90
6822;DHT22;3449;48.728;8.968;2023-04-10T08:23:41;11.90;99.90
6822;DHT22;3449;48.728;8.968;2023-04-10T08:26:08;11.90;99.90
6822;DHT22;3449;48.728;8.968;2023-04-10T08:28:35;11.70;99.90
6822;DHT22;3449;48.728;8.968;2023-04-10T08:31:02;11.80;99.90
6822;DHT22;3449;48.728;8.968;2023-04-10T08:33:29;11.90;99.90
6822;DHT22;3449;48.728;8.968;2023-04-10T08:35:56;11.90;99.90
6822;DHT22;3449;48.728;8.968;2023-04-10T08:38:24;12.00;99.90
6822;DHT22;3449;48.728;8.968;2023-04-10T08:40:52;12.30;99.90
6822;DHT22;3449;48.728;8.968;2023-04-10T08:43:19;12.50;99.90
6822;DHT22;3449;48.728;8.968;2023-04-10T08:45:46;12.80;99.90
6822;DHT22;3449;48.728;8.968;2023-04-10T08:48:15;12.90;99.90
6822;DHT22;3449;48.728;8.968;2023-04-10T08:50:45;13.00;99.90
6822;DHT22;3449;48.728;8.968;2023-04-10T08:53:13;13.10;99.90
6822;DHT22;3449;48.728;8.968;2023-04-10T08:55:43;13.10;99.90
6822;DHT22;3449;48.728;8.968;2023-04-10T08:58:10;13.10;99.90
6822;DHT22;3449;48.728;8.968;2023-04-10T09:00:39;13.30;99.90
6822;DHT22;3449;48.728;8.968;2023-04-10T09:03:08;13.30;99.90
6822;DHT22;3449;48.728;8.968;2023-04-10T09:05:36;13.60;99.90
6822;DHT22;3449;48.728;8.968;2023-04-10T09:08:03;13.80;99.90
6822;DHT22;3449;48.728;8.968;2023-04-10T09:10:30;14.10;99.90
6822;DHT22;3449;48.728;8.968;2023-04-10T09:12:58;14.30;99.90
6822;DHT22;3449;48.728;8.968;2023-04-10T09:15:25;14.60;99.90
6822;DHT22;3449;48.728;8.968;2023-04-10T09:17:57;14.80;99.90
6822;DHT22;3449;48.728;8.968;2023-04-10T09:20:27;14.70;99.90
6822;DHT22;3449;48.728;8.968;2023-04-10T09:22:54;14.90;99.90
6822;DHT22;3449;48.728;8.968;2023-04-10T09:25:29;14.70;99.90
6822;DHT22;3449;48.728;8.968;2023-04-10T09:28:02;14.90;99.90
6822;DHT22;3449;48.728;8.968;2023-04-10T09:30:34;15.10;99.90
6822;DHT22;3449;48.728;8.968;2023-04-10T09:33:01;15.10;99.90
6822;DHT22;3449;48.728;8.968;2023-04-10T09:35:35;15.10;99.90
6822;DHT22;3449;48.728;8.968;2023-04-10T09:38:13;15.10;99.90
6822;DHT22;3449;48.728;8.968;2023-04-10T09:40:41;15.10;99.90
6822;DHT22;3449;48.728;8.968;2023-04-10T09:43:20;15.30;99.90
6822;DHT22;3449;48.728;8.968;2023-04-10T09:45:49;15.10;99.90
6822;DHT22;3449;48.728;8.968;2023-04-10T09:48:16;15.20;99.90
6822;DHT22;3449;48.728;8.968;2023-04-10T09:50:44;15.20;99.90
6822;DHT22;3449;48.728;8.968;2023-04-10T09:53:13;15.50;99.90
6822;DHT22;3449;48.728;8.968;2023-04-10T09:55:40;15.60;99.90
6822;DHT22;3449;48.728;8.968;2023-04-10T09:58:09;15.70;99.90
6822;DHT22;3449;48.728;8.968;2023-04-10T10:00:40;16.00;99.90
6822;DHT22;3449;48.728;8.968;2023-04-10T10:03:09;16.40;99.90
6822;DHT22;3449;48.728;8.968;2023-04-10T10:05:39;16.40;99.90
6822;DHT22;3449;48.728;8.968;2023-04-10T10:08:07;16.90;99.90
6822;DHT22;3449;48.728;8.968;2023-04-10T10:10:37;16.90;99.90
6822;DHT22;3449;48.728;8.968;2023-04-10T10:13:07;17.10;99.90
6822;DHT22;3449;48.728;8.968;2023-04-10T10:15:41;17.00;99.90
6822;DHT22;3449;48.728;8.968;2023-04-10T10:18:19;17.00;99.90
6822;DHT22;3449;48.728;8.968;2023-04-10T10:20:47;17.10;99.90
6822;DHT22;3449;48.728;8.968;2023-04-10T10:23:16;17.50;99.90
6822;DHT22;3449;48.728;8.968;2023-04-10T10:25:45;17.60;99.90
6822;DHT22;3449;48.728;8.968;2023-04-10T10:28:13;17.60;99.20
6822;DHT22;3449;48.728;8.968;2023-04-10T10:30:41;17.60;99.40
6822;DHT22;3449;48.728;8.968;2023-04-10T10:33:09;17.80;99.80
6822;DHT22;3449;48.728;8.968;2023-04-10T10:35:38;17.60;97.80
6822;DHT22;3449;48.728;8.968;2023-04-10T10:38:06;17.50;97.70
6822;DHT22;3449;48.728;8.968;2023-04-10T10:40:40;17.30;96.00
6822;DHT22;3449;48.728;8.968;2023-04-10T10:43:14;17.40;96.20
6822;DHT22;3449;48.728;8.968;2023-04-10T10:45:51;17.40;95.80
6822;DHT22;3449;48.728;8.968;2023-04-10T10:48:20;17.40;95.90
6822;DHT22;3449;48.728;8.968;2023-04-10T10:50:51;17.50;95.20
6822;DHT22;3449;48.728;8.968;2023-04-10T10:53:33;17.80;95.90
6822;DHT22;3449;48.728;8.968;2023-04-10T10:56:32;17.80;94.50
6822;DHT22;3449;48.728;8.968;2023-04-10T10:58:59;18.10;95.50
6822;DHT22;3449;48.728;8.968;2023-04-10T11:01:27;17.90;94.00
6822;DHT22;3449;48.728;8.968;2023-04-10T11:03:54;18.40;93.30
6822;DHT22;3449;48.728;8.968;2023-04-10T11:06:48;18.80;92.60
6822;DHT22;3449;48.728;8.968;2023-04-10T11:09:44;19.00;92.30
6822;DHT22;3449;48.728;8.968;2023-04-10T11:12:12;19.20;92.50
6822;DHT22;3449;48.728;8.968;2023-04-10T11:14:39;19.60;90.70
6822;DHT22;3449;48.728;8.968;2023-04-10T11:17:09;19.90;90.20
6822;DHT22;3449;48.728;8.968;2023-04-10T11:19:56;20.30;89.90
6822;DHT22;3449;48.728;8.968;2023-04-10T11:22:25;20.40;89.60
6822;DHT22;3449;48.728;8.968;2023-04-10T11:24:57;20.40;84.90
6822;DHT22;3449;48.728;8.968;2023-04-10T11:27:43;20.20;83.10
6822;DHT22;3449;48.728;8.968;2023-04-10T11:30:32;20.20;83.50
6822;DHT22;3449;48.728;8.968;2023-04-10T11:33:02;20.60;83.00
6822;DHT22;3449;48.728;8.968;2023-04-10T11:35:30;20.80;82.20
6822;DHT22;3449;48.728;8.968;2023-04-10T11:38:14;19.80;79.60
6822;DHT22;3449;48.728;8.968;2023-04-10T11:41:00;20.40;82.30
6822;DHT22;3449;48.728;8.968;2023-04-10T11:43:29;20.80;79.20
6822;DHT22;3449;48.728;8.968;2023-04-10T11:46:04;21.10;77.70
6822;DHT22;3449;48.728;8.968;2023-04-10T11:48:33;21.00;77.00
6822;DHT22;3449;48.728;8.968;2023-04-10T11:51:08;19.70;73.20
6822;DHT22;3449;48.728;8.968;2023-04-10T11:53:36;19.60;72.00
6822;DHT22;3449;48.728;8.968;2023-04-10T11:56:04;19.50;72.00
6822;DHT22;3449;48.728;8.968;2023-04-10T11:58:32;19.90;74.10
6822;DHT22;3449;48.728;8.968;2023-04-10T12:01:00;20.50;74.40
6822;DHT22;3449;48.728;8.968;2023-04-10T12:03:36;20.50;72.70
6822;DHT22;3449;48.728;8.968;2023-04-10T12:06:06;20.60;70.90
6822;DHT22;3449;48.728;8.968;2023-04-10T12:08:35;20.90;73.70
6822;DHT22;3449;48.728;8.968;2023-04-10T12:11:02;21.10;70.80
6822;DHT22;3449;48.728;8.968;2023-04-10T12:13:30;21.10;69.30
6822;DHT22;3449;48.728;8.968;2023-04-10T12:15:58;21.00;67.80
6822;DHT22;3449;48.728;8.968;2023-04-10T12:18:26;21.20;70.50
6822;DHT22;3449;48.728;8.968;2023-04-10T12:20:55;20.80;68.10
6822;DHT22;3449;48.728;8.968;2023-04-10T12:23:24;20.90;68.30
6822;DHT22;3449;48.728;8.968;2023-04-10T12:25:51;20.80;67.00
6822;DHT22;3449;48.728;8.968;2023-04-10T12:28:19;20.00;67.20
6822;DHT22;3449;48.728;8.968;2023-04-10T12:30:47;20.30;68.40
6822;DHT22;3449;48.728;8.968;2023-04-10T12:33:19;20.20;67.50
6822;DHT22;3449;48.728;8.968;2023-04-10T12:35:47;20.20;66.90
6822;DHT22;3449;48.728;8.968;2023-04-10T12:38:15;20.10;67.20
6822;DHT22;3449;48.728;8.968;2023-04-10T12:40:57;20.10;65.70
6822;DHT22;3449;48.728;8.968;2023-04-10T12:43:31;20.10;68.40
6822;DHT22;3449;48.728;8.968;2023-04-10T12:45:59;19.80;64.90
6822;DHT22;3449;48.728;8.968;2023-04-10T12:48:26;19.70;68.40
6822;DHT22;3449;48.728;8.968;2023-04-10T12:50:53;19.70;68.50
6822;DHT22;3449;48.728;8.968;2023-04-10T12:53:22;19.60;67.50
6822;DHT22;3449;48.728;8.968;2023-04-10T12:56:00;19.70;68.90
6822;DHT22;3449;48.728;8.968;2023-04-10T12:58:28;20.10;69.20
6822;DHT22;3449;48.728;8.968;2023-04-10T13:00:57;20.40;65.80
6822;DHT22;3449;48.728;8.968;2023-04-10T13:03:24;19.80;64.20
6822;DHT22;3449;48.728;8.968;2023-04-10T13:05:51;19.60;65.20
6822;DHT22;3449;48.728;8.968;2023-04-10T13:08:18;19.90;68.70
6822;DHT22;3449;48.728;8.968;2023-04-10T13:10:47;20.40;68.80
6822;DHT22;3449;48.728;8.968;2023-04-10T13:13:14;20.50;67.20
6822;DHT22;3449;48.728;8.968;2023-04-10T13:15:42;20.00;65.70
6822;DHT22;3449;48.728;8.968;2023-04-10T13:18:08;20.30;66.70
6822;DHT22;3449;48.728;8.968;2023-04-10T13:20:36;20.80;67.70
6822;DHT22;3449;48.728;8.968;2023-04-10T13:23:04;20.90;66.40
6822;DHT22;3449;48.728;8.968;2023-04-10T13:25:31;20.70;65.40
6822;DHT22;3449;48.728;8.968;2023-04-10T13:28:00;20.50;66.40
6822;DHT22;3449;48.728;8.968;2023-04-10T13:30:28;20.70;63.50
6822;DHT22;3449;48.728;8.968;2023-04-10T13:32:55;20.80;67.10
6822;DHT22;3449;48.728;8.968;2023-04-10T13:35:22;21.20;66.10
6822;DHT22;3449;48.728;8.968;2023-04-10T13:37:49;21.00;64.30
6822;DHT22;3449;48.728;8.968;2023-04-10T13:40:19;20.40;63.50
6822;DHT22;3449;48.728;8.968;2023-04-10T13:42:46;19.90;63.60
6822;DHT22;3449;48.728;8.968;2023-04-10T13:45:15;19.60;66.00
6822;DHT22;3449;48.728;8.968;2023-04-10T13:47:42;19.60;64.30
6822;DHT22;3449;48.728;8.968;2023-04-10T13:50:09;19.60;66.40
6822;DHT22;3449;48.728;8.968;2023-04-10T13:52:36;19.60;65.90
6822;DHT22;3449;48.728;8.968;2023-04-10T13:55:04;19.30;66.30
6822;DHT22;3449;48.728;8.968;2023-04-10T13:57:31;19.30;67.30
6822;DHT22;3449;48.728;8.968;2023-04-10T13:59:58;19.00;64.80
6822;DHT22;3449;48.728;8.968;2023-04-10T14:02:27;18.90;66.90
6822;DHT22;3449;48.728;8.968;2023-04-10T14:04:53;18.70;64.30
6822;DHT22;3449;48.728;8.968;2023-04-10T14:07:20;18.60;66.50
6822;DHT22;3449;48.728;8.968;2023-04-10T14:09:47;18.80;65.30
6822;DHT22;3449;48.728;8.968;2023-04-10T14:12:14;18.90;63.80
6822;DHT22;3449;48.728;8.968;2023-04-10T14:14:41;18.80;63.90
6822;DHT22;3449;48.728;8.968;2023-04-10T14:17:08;19.10;64.10
6822;DHT22;3449;48.728;8.968;2023-04-10T14:19:37;19.40;63.70
6822;DHT22;3449;48.728;8.968;2023-04-10T14:22:04;19.40;64.20
6822;DHT22;3449;48.728;8.968;2023-04-10T14:24:31;19.20;66.60
6822;DHT22;3449;48.728;8.968;2023-04-10T14:26:58;19.40;67.00
6822;DHT22;3449;48.728;8.968;2023-04-10T14:29:26;19.20;62.50
6822;DHT22;3449;48.728;8.968;2023-04-10T14:31:53;19.20;64.30
6822;DHT22;3449;48.728;8.968;2023-04-10T14:34:20;19.60;66.20
6822;DHT22;3449;48.728;8.968;2023-04-10T14:36:48;19.80;64.10
6822;DHT22;3449;48.728;8.968;2023-04-10T14:39:20;19.90;65.30
6822;DHT22;3449;48.728;8.968;2023-04-10T14:41:47;20.30;65.00
6822;DHT22;3449;48.728;8.968;2023-04-10T14:44:14;20.00;61.50
6822;DHT22;3449;48.728;8.968;2023-04-10T14:46:41;19.80;61.50
6822;DHT22;3449;48.728;8.968;2023-04-10T14:49:08;19.70;64.80
6822;DHT22;3449;48.728;8.968;2023-04-10T14:51:35;19.50;64.50
6822;DHT22;3449;48.728;8.968;2023-04-10T14:54:04;19.40;62.40
6822;DHT22;3449;48.728;8.968;2023-04-10T14:56:32;19.20;63.70
6822;DHT22;3449;48.728;8.968;2023-04-10T14:58:59;19.00;63.00
6822;DHT22;3449;48.728;8.968;2023-04-10T15:01:26;19.10;64.90
6822;DHT22;3449;48.728;8.968;2023-04-10T15:03:52;19.30;64.00
6822;DHT22;3449;48.728;8.968;2023-04-10T15:06:19;19.40;63.70
6822;DHT22;3449;48.728;8.968;2023-04-10T15:08:46;19.70;65.30
6822;DHT22;3449;48.728;8.968;2023-04-10T15:11:14;19.70;64.20
6822;DHT22;3449;48.728;8.968;2023-04-10T15:13:41;19.60;66.10
6822;DHT22;3449;48.728;8.968;2023-04-10T15:16:08;19.80;65.40
6822;DHT22;3449;48.728;8.968;2023-04-10T15:18:36;20.00;66.40
6822;DHT22;3449;48.728;8.968;2023-04-10T15:21:04;20.10;66.60
6822;DHT22;3449;48.728;8.968;2023-04-10T15:23:31;19.80;65.20
6822;DHT22;3449;48.728;8.968;2023-04-10T15:25:57;19.50;66.20
6822;DHT22;3449;48.728;8.968;2023-04-10T15:28:27;18.90;66.80
6822;DHT22;3449;48.728;8.968;2023-04-10T15:30:53;18.60;66.20
6822;DHT22;3449;48.728;8.968;2023-04-10T15:33:22;18.50;66.80
6822;DHT22;3449;48.728;8.968;2023-04-10T15:35:49;18.30;66.60
6822;DHT22;3449;48.728;8.968;2023-04-10T15:38:15;18.20;67.70
6822;DHT22;3449;48.728;8.968;2023-04-10T15:40:42;18.20;63.90
6822;DHT22;3449;48.728;8.968;2023-04-10T15:43:09;18.20;63.60
6822;DHT22;3449;48.728;8.968;2023-04-10T15:45:38;18.20;64.90
6822;DHT22;3449;48.728;8.968;2023-04-10T15:48:05;18.20;63.20
6822;DHT22;3449;48.728;8.968;2023-04-10T15:50:32;17.80;64.40
6822;DHT22;3449;48.728;8.968;2023-04-10T15:52:59;17.70;64.40
6822;DHT22;3449;48.728;8.968;2023-04-10T15:55:26;17.70;65.70
6822;DHT22;3449;48.728;8.968;2023-04-10T15:57:53;17.80;66.00
6822;DHT22;3449;48.728;8.968;2023-04-10T16:00:20;17.80;67.40
6822;DHT22;3449;48.728;8.968;2023-04-10T16:02:48;17.70;67.20
6822;DHT22;3449;48.728;8.968;2023-04-10T16:05:15;17.60;67.70
6822;DHT22;3449;48.728;8.968;2023-04-10T16:07:42;17.60;66.20
6822;DHT22;3449;48.728;8.968;2023-04-10T16:10:09;17.50;66.80
6822;DHT22;3449;48.728;8.968;2023-04-10T16:12:37;17.30;65.60
6822;DHT22;3449;48.728;8.968;2023-04-10T16:15:04;17.30;66.70
6822;DHT22;3449;48.728;8.968;2023-04-10T16:17:32;17.20;66.50
6822;DHT22;3449;48.728;8.968;2023-04-10T16:20:03;17.20;67.50
6822;DHT22;3449;48.728;8.968;2023-04-10T16:22:30;17.10;68.20